createdAt,value
2022-09-21T00:00:51.879Z,88.06
2022-09-21T00:03:18.857Z,88.16
2022-09-21T00:05:45.688Z,87.96
2022-09-21T00:08:13.910Z,88.17
2022-09-21T00:10:40.387Z,87.63
2022-09-21T00:13:08.304Z,87.89
2022-09-21T00:15:34.929Z,88.10
2022-09-21T00:18:01.788Z,87.91
2022-09-21T00:20:29.134Z,87.94
2022-09-21T00:22:55.562Z,87.82
2022-09-21T00:25:21.925Z,87.70
2022-09-21T00:27:51.154Z,87.69
2022-09-21T00:30:18.189Z,87.55
2022-09-21T00:32:44.698Z,87.46
2022-09-21T00:35:11.053Z,87.11
2022-09-21T00:37:37.554Z,87.45
2022-09-21T00:40:04.675Z,87.41
2022-09-21T00:42:34.136Z,87.68
2022-09-21T00:45:01.092Z,87.47
2022-09-21T00:47:40.536Z,87.43
2022-09-21T00:50:11.884Z,87.46
2022-09-21T00:52:43.731Z,87.34
2022-09-21T00:55:23.815Z,88.00
2022-09-21T00:57:56.682Z,87.54
2022-09-21T01:00:23.368Z,87.79
2022-09-21T01:02:49.800Z,88.10
2022-09-21T01:05:16.147Z,88.29
2022-09-21T01:07:46.198Z,88.34
2022-09-21T01:10:17.524Z,88.17
2022-09-21T01:12:50.002Z,88.22
2022-09-21T01:15:36.577Z,88.61
2022-09-21T01:18:17.984Z,87.95
2022-09-21T01:21:09.022Z,88.56
2022-09-21T01:23:38.400Z,87.98
2022-09-21T01:26:29.791Z,88.53
2022-09-21T01:29:02.182Z,88.58
2022-09-21T01:31:35.190Z,88.30
2022-09-21T01:34:12.246Z,88.29
2022-09-21T01:36:41.960Z,88.18
2022-09-21T01:39:13.103Z,88.20
2022-09-21T01:41:44.377Z,88.16
2022-09-21T01:44:17.462Z,88.15
2022-09-21T01:46:46.324Z,88.03
2022-09-21T01:49:29.684Z,88.79
2022-09-21T01:52:02.338Z,88.48
2022-09-21T01:54:38.074Z,88.83
2022-09-21T01:57:16.202Z,89.10
2022-09-21T02:00:05.602Z,89.38
2022-09-21T02:02:38.500Z,88.43
2022-09-21T02:05:06.396Z,88.09
2022-09-21T02:07:34.632Z,88.18
2022-09-21T02:10:03.546Z,87.91
2022-09-21T02:12:32.954Z,87.80
2022-09-21T02:15:00.600Z,88.07
2022-09-21T02:17:41.123Z,88.73
2022-09-21T02:20:07.694Z,88.13
2022-09-21T02:23:03.468Z,88.93
2022-09-21T02:25:48.737Z,88.75
2022-09-21T02:28:47.423Z,89.16
2022-09-21T02:31:23.035Z,88.32
2022-09-21T02:34:10.531Z,88.71
2022-09-21T02:36:49.003Z,88.94
2022-09-21T02:39:19.531Z,88.55
2022-09-21T02:42:05.888Z,89.32
2022-09-21T02:44:46.378Z,88.74
2022-09-21T02:47:22.173Z,89.12
2022-09-21T02:49:54.704Z,89.26
2022-09-21T02:52:23.419Z,89.66
2022-09-21T02:54:53.689Z,89.64
2022-09-21T02:57:21.781Z,89.67
2022-09-21T02:59:48.580Z,88.79
2022-09-21T03:02:15.453Z,88.48
2022-09-21T03:04:47.099Z,88.82
2022-09-21T03:07:15.578Z,88.82
2022-09-21T03:09:42.119Z,88.46
2022-09-21T03:12:08.591Z,88.60
2022-09-21T03:14:34.995Z,89.07
2022-09-21T03:17:01.396Z,89.23
2022-09-21T03:19:29.311Z,89.92
2022-09-21T03:21:55.665Z,90.05
2022-09-21T03:24:40.778Z,90.10
2022-09-21T03:27:08.805Z,90.06
2022-09-21T03:29:35.258Z,90.13
2022-09-21T03:32:01.859Z,90.28
2022-09-21T03:34:28.194Z,90.21
2022-09-21T03:36:55.054Z,90.37
2022-09-21T03:39:21.468Z,90.43
2022-09-21T03:41:48.110Z,91.09
2022-09-21T03:44:16.332Z,90.94
2022-09-21T03:46:42.873Z,91.23
2022-09-21T03:49:09.382Z,91.57
2022-09-21T03:51:35.749Z,91.53
2022-09-21T03:54:02.114Z,91.63
2022-09-21T03:56:28.701Z,91.32
2022-09-21T03:58:55.173Z,91.37
2022-09-21T04:01:21.603Z,91.34
2022-09-21T04:03:48.016Z,91.22
2022-09-21T04:06:14.758Z,91.24
2022-09-21T04:08:42.392Z,91.08
2022-09-21T04:11:11.829Z,90.24
2022-09-21T04:13:38.642Z,90.17
2022-09-21T04:16:05.591Z,89.73
2022-09-21T04:18:32.393Z,89.44
2022-09-21T04:20:59.243Z,89.36
2022-09-21T04:23:25.614Z,88.89
2022-09-21T04:25:54.092Z,88.94
2022-09-21T04:28:21.533Z,88.70
2022-09-21T04:30:48.011Z,88.68
2022-09-21T04:33:14.898Z,88.64
2022-09-21T04:35:41.214Z,88.71
2022-09-21T04:38:07.702Z,88.39
2022-09-21T04:40:34.110Z,88.46
2022-09-21T04:43:00.920Z,88.77
2022-09-21T04:45:27.284Z,88.62
2022-09-21T04:47:53.695Z,88.73
2022-09-21T04:50:20.384Z,89.17
2022-09-21T04:52:47.624Z,89.28
2022-09-21T04:55:14.028Z,89.17
2022-09-21T04:57:40.439Z,89.09
2022-09-21T05:00:07.606Z,89.41
2022-09-21T05:02:34.050Z,89.37
2022-09-21T05:05:00.495Z,89.26
2022-09-21T05:07:26.838Z,89.29
2022-09-21T05:10:05.299Z,88.80
2022-09-21T05:12:33.250Z,88.63
2022-09-21T05:14:59.796Z,88.64
2022-09-21T05:17:26.202Z,88.50
2022-09-21T05:19:53.651Z,88.64
2022-09-21T05:22:20.604Z,88.58
2022-09-21T05:24:47.733Z,88.44
2022-09-21T05:27:14.446Z,88.40
2022-09-21T05:29:41.700Z,88.49
2022-09-21T05:32:13.889Z,88.27
2022-09-21T05:34:48.030Z,89.53
2022-09-21T05:37:17.114Z,89.35
2022-09-21T05:39:43.730Z,89.32
2022-09-21T05:42:10.883Z,89.06
2022-09-21T05:44:37.788Z,89.41
2022-09-21T05:47:10.889Z,90.07
2022-09-21T05:49:49.083Z,89.64
2022-09-21T05:52:41.691Z,90.64
2022-09-21T05:55:45.025Z,90.74
2022-09-21T05:58:28.334Z,90.44
2022-09-21T06:01:13.998Z,90.37
2022-09-21T06:03:42.222Z,89.59
2022-09-21T06:06:10.147Z,90.05
2022-09-21T06:08:36.532Z,90.00
2022-09-21T06:11:03.073Z,90.21
2022-09-21T06:13:29.466Z,90.39
2022-09-21T06:15:55.807Z,90.11
2022-09-21T06:18:22.161Z,90.17
2022-09-21T06:20:48.525Z,90.73
2022-09-21T06:23:15.568Z,91.10
2022-09-21T06:25:41.983Z,91.20
2022-09-21T06:28:11.276Z,91.16
2022-09-21T06:30:39.366Z,91.54
2022-09-21T06:33:07.233Z,91.87
2022-09-21T06:35:35.445Z,91.86
2022-09-21T06:38:04.942Z,92.03
2022-09-21T06:40:32.562Z,92.08
2022-09-21T06:43:00.526Z,92.16
2022-09-21T06:45:28.033Z,92.26
2022-09-21T06:47:54.502Z,92.83
2022-09-21T06:50:21.689Z,93.04
2022-09-21T06:52:48.150Z,93.29
2022-09-21T06:55:15.039Z,93.91
2022-09-21T06:57:41.412Z,94.02
2022-09-21T07:00:10.795Z,94.00
2022-09-21T07:02:37.289Z,94.47
2022-09-21T07:05:04.622Z,94.56
2022-09-21T07:07:31.549Z,94.98
2022-09-21T07:10:12.088Z,95.54
2022-09-21T07:12:41.354Z,95.73
2022-09-21T07:15:10.329Z,96.62
2022-09-21T07:17:38.643Z,96.82
2022-09-21T07:20:07.735Z,96.94
2022-09-21T07:22:34.353Z,97.29
2022-09-21T07:25:01.534Z,97.26
2022-09-21T07:27:29.687Z,97.26
2022-09-21T07:29:56.073Z,97.39
2022-09-21T07:32:22.512Z,97.72
2022-09-21T07:34:49.192Z,97.76
2022-09-21T07:37:16.133Z,97.98
2022-09-21T07:39:42.510Z,98.14
2022-09-21T07:42:08.953Z,98.38
2022-09-21T07:44:35.359Z,98.60
2022-09-21T07:47:03.471Z,98.71
2022-09-21T07:49:30.597Z,98.59
2022-09-21T07:52:01.396Z,98.51
2022-09-21T07:54:30.435Z,98.79
2022-09-21T07:57:15.666Z,98.72
2022-09-21T07:59:42.040Z,98.23
2022-09-21T08:02:08.488Z,98.31
2022-09-21T08:04:34.974Z,98.43
2022-09-21T08:07:01.341Z,98.56
2022-09-21T08:09:27.661Z,98.38
2022-09-21T08:11:55.696Z,98.52
2022-09-21T08:14:26.127Z,98.53
2022-09-21T08:16:53.376Z,97.89
2022-09-21T08:19:20.553Z,97.61
2022-09-21T08:21:53.506Z,97.24
2022-09-21T08:24:22.885Z,97.11
2022-09-21T08:26:52.112Z,97.01
2022-09-21T08:29:18.773Z,96.96
2022-09-21T08:31:46.538Z,96.76
2022-09-21T08:34:13.177Z,96.97
2022-09-21T08:36:39.836Z,96.82
2022-09-21T08:39:07.955Z,96.48
2022-09-21T08:41:40.550Z,96.91
2022-09-21T08:44:20.964Z,96.01
2022-09-21T08:47:09.598Z,94.76
2022-09-21T08:49:40.252Z,93.21
2022-09-21T08:52:15.660Z,92.51
2022-09-21T08:54:57.086Z,91.78
2022-09-21T08:57:29.137Z,89.62
2022-09-21T08:59:55.763Z,87.80
2022-09-21T09:02:47.623Z,86.29
2022-09-21T09:05:23.069Z,85.54
2022-09-21T09:07:53.154Z,83.13
2022-09-21T09:10:39.538Z,81.69
2022-09-21T09:13:20.874Z,80.67
2022-09-21T09:15:53.186Z,77.11
2022-09-21T09:18:42.755Z,75.31
2022-09-21T09:21:15.352Z,79.03
2022-09-21T09:23:51.676Z,70.02
2022-09-21T09:26:47.622Z,72.54
2022-09-21T09:29:47.874Z,67.38
2022-09-21T09:32:15.517Z,73.25
2022-09-21T09:34:53.752Z,62.95
2022-09-21T09:37:30.153Z,61.18
2022-09-21T09:40:00.264Z,59.54
2022-09-21T09:43:01.289Z,59.14
2022-09-21T09:45:43.486Z,58.78
2022-09-21T09:48:27.045Z,56.40
2022-09-21T09:50:53.437Z,52.73
2022-09-21T09:53:23.864Z,53.16
2022-09-21T09:55:52.480Z,49.74
2022-09-21T09:58:27.950Z,50.50
2022-09-21T10:00:57.697Z,49.58
2022-09-21T10:03:27.290Z,48.69
2022-09-21T10:05:54.891Z,47.89
2022-09-21T10:08:36.299Z,48.33
2022-09-21T10:11:03.726Z,45.29
2022-09-21T10:13:37.767Z,47.30
2022-09-21T10:16:23.635Z,48.54
2022-09-21T10:18:57.310Z,45.64
2022-09-21T10:21:26.841Z,44.11
2022-09-21T10:23:59.329Z,44.17
2022-09-21T10:26:38.779Z,42.49
2022-09-21T10:29:23.322Z,44.16
2022-09-21T10:32:03.469Z,43.16
2022-09-21T10:34:32.290Z,41.59
2022-09-21T10:37:02.118Z,41.54
2022-09-21T10:39:31.154Z,40.44
2022-09-21T10:42:00.495Z,38.61
2022-09-21T10:44:35.080Z,40.42
2022-09-21T10:47:16.803Z,40.80
2022-09-21T10:49:48.247Z,40.52
2022-09-21T10:52:14.813Z,39.72
2022-09-21T10:54:41.993Z,37.30
2022-09-21T10:57:14.837Z,37.93
2022-09-21T10:59:41.363Z,37.46
2022-09-21T11:02:26.640Z,37.08
2022-09-21T11:05:07.994Z,37.33
2022-09-21T11:07:41.219Z,36.32
2022-09-21T11:10:34.170Z,36.90
2022-09-21T11:13:18.791Z,36.65
2022-09-21T11:16:01.902Z,36.16
2022-09-21T11:18:46.696Z,36.43
2022-09-21T11:21:27.355Z,37.00
2022-09-21T11:24:31.802Z,38.65
2022-09-21T11:27:28.182Z,38.61
2022-09-21T11:30:01.748Z,36.69
2022-09-21T11:33:05.315Z,37.72
2022-09-21T11:35:58.660Z,38.21
2022-09-21T11:38:39.907Z,36.84
2022-09-21T11:41:36.250Z,36.06
2022-09-21T11:44:17.066Z,35.56
2022-09-21T11:47:12.279Z,34.70
2022-09-21T11:49:47.518Z,34.72
2022-09-21T11:52:26.287Z,33.84
2022-09-21T11:55:14.984Z,34.80
2022-09-21T11:57:55.083Z,32.28
2022-09-21T12:00:23.197Z,33.25
2022-09-21T12:03:19.400Z,33.49
2022-09-21T12:05:58.223Z,32.48
2022-09-21T12:08:55.322Z,34.65
2022-09-21T12:11:27.749Z,32.73
2022-09-21T12:14:09.511Z,33.75
2022-09-21T12:16:44.089Z,33.96
2022-09-21T12:19:23.935Z,31.14
2022-09-21T12:21:53.415Z,35.61
2022-09-21T12:24:32.121Z,33.54
2022-09-21T12:27:05.369Z,32.88
2022-09-21T12:29:47.637Z,33.29
2022-09-21T12:32:56.196Z,33.19
2022-09-21T12:35:49.673Z,34.33
2022-09-21T12:38:27.554Z,33.87
2022-09-21T12:41:16.293Z,33.18
2022-09-21T12:43:55.089Z,33.26
2022-09-21T12:46:26.137Z,34.32
2022-09-21T12:48:53.014Z,32.97
2022-09-21T12:51:34.457Z,31.98
2022-09-21T12:54:19.705Z,32.33
2022-09-21T12:57:29.750Z,30.60
2022-09-21T13:00:15.902Z,27.84
2022-09-21T13:03:11.406Z,31.87
2022-09-21T13:06:20.212Z,32.17
2022-09-21T13:11:21.822Z,31.10
2022-09-21T13:13:53.260Z,30.22
2022-09-21T13:16:29.767Z,32.36
2022-09-21T13:19:02.265Z,31.24
2022-09-21T13:21:32.046Z,31.18
2022-09-21T13:23:58.365Z,30.56
2022-09-21T13:26:51.733Z,31.27
2022-09-21T13:29:20.692Z,31.42
2022-09-21T13:32:10.759Z,32.23
2022-09-21T13:34:42.570Z,31.24
2022-09-21T13:37:14.436Z,31.34
2022-09-21T13:40:02.402Z,31.63
2022-09-21T13:42:34.808Z,30.53
2022-09-21T13:45:04.709Z,29.33
2022-09-21T13:47:38.451Z,30.78
2022-09-21T13:50:12.542Z,32.29
2022-09-21T13:52:51.964Z,31.26
2022-09-21T13:55:29.409Z,30.53
2022-09-21T13:57:58.839Z,29.69
2022-09-21T14:00:33.476Z,29.24
2022-09-21T14:03:04.668Z,28.46
2022-09-21T14:05:45.155Z,29.97
2022-09-21T14:08:14.471Z,28.67
2022-09-21T14:10:50.399Z,29.64
2022-09-21T14:13:26.958Z,29.57
2022-09-21T14:15:53.371Z,28.74
2022-09-21T14:18:34.906Z,28.91
2022-09-21T14:21:09.370Z,30.23
2022-09-21T14:23:37.818Z,28.47
2022-09-21T14:26:43.768Z,29.41
2022-09-21T14:29:38.438Z,29.23
2022-09-21T14:32:14.148Z,29.02
2022-09-21T14:34:44.523Z,29.29
2022-09-21T14:37:28.880Z,29.56
2022-09-21T14:39:56.846Z,28.33
2022-09-21T14:42:28.137Z,28.89
2022-09-21T14:45:02.299Z,29.00
2022-09-21T14:47:48.055Z,29.62
2022-09-21T14:50:19.556Z,28.50
2022-09-21T14:53:32.470Z,30.11
2022-09-21T14:56:22.564Z,30.11
2022-09-21T14:59:15.858Z,30.55
2022-09-21T15:01:58.773Z,30.15
2022-09-21T15:04:39.183Z,30.72
2022-09-21T15:07:52.345Z,32.03
2022-09-21T15:10:59.893Z,31.96
2022-09-21T15:13:46.514Z,31.82
2022-09-21T15:16:25.899Z,32.49
2022-09-21T15:19:05.852Z,32.31
2022-09-21T15:21:32.928Z,33.57
2022-09-21T15:24:10.092Z,32.61
2022-09-21T15:26:40.745Z,32.18
2022-09-21T15:29:10.683Z,31.22
2022-09-21T15:31:42.570Z,31.26
2022-09-21T15:34:10.930Z,31.21
2022-09-21T15:36:40.719Z,31.00
2022-09-21T15:39:20.499Z,32.40
2022-09-21T15:41:50.546Z,31.71
2022-09-21T15:44:21.510Z,31.34
2022-09-21T15:46:51.653Z,30.64
2022-09-21T15:49:22.863Z,31.21
2022-09-21T15:51:57.142Z,31.82
2022-09-21T15:54:30.499Z,31.28
2022-09-21T15:57:04.685Z,31.70
2022-09-21T15:59:34.626Z,31.76
2022-09-21T16:02:12.430Z,32.87
2022-09-21T16:04:49.358Z,32.65
2022-09-21T16:07:34.280Z,33.07
2022-09-21T16:10:02.531Z,32.79
2022-09-21T16:12:38.257Z,33.34
2022-09-21T16:15:15.310Z,32.97
2022-09-21T16:17:55.006Z,33.08
2022-09-21T16:20:23.500Z,33.14
2022-09-21T16:22:55.328Z,33.90
2022-09-21T16:25:35.147Z,34.26
2022-09-21T16:28:07.125Z,34.80
2022-09-21T16:30:51.152Z,34.63
2022-09-21T16:33:49.228Z,35.89
2022-09-21T16:36:25.506Z,36.90
2022-09-21T16:38:56.159Z,36.52
2022-09-21T16:41:25.256Z,37.75
2022-09-21T16:43:52.062Z,37.78
2022-09-21T16:46:18.853Z,39.29
2022-09-21T16:48:45.295Z,39.88
2022-09-21T16:51:13.545Z,39.97
2022-09-21T16:53:40.175Z,42.04
2022-09-21T16:56:15.296Z,42.19
2022-09-21T16:58:43.609Z,44.38
2022-09-21T17:01:12.918Z,44.82
2022-09-21T17:03:42.673Z,45.33
2022-09-21T17:06:17.794Z,45.32
2022-09-21T17:08:48.129Z,46.41
2022-09-21T17:11:23.043Z,46.20
2022-09-21T17:13:50.372Z,47.37
2022-09-21T17:16:18.549Z,47.87
2022-09-21T17:18:45.991Z,47.83
2022-09-21T17:21:12.969Z,50.30
2022-09-21T17:23:40.047Z,49.82
2022-09-21T17:26:17.544Z,50.31
2022-09-21T17:28:44.956Z,51.84
2022-09-21T17:31:13.821Z,52.21
2022-09-21T17:33:40.738Z,52.86
2022-09-21T17:36:16.112Z,52.96
2022-09-21T17:38:43.526Z,53.47
2022-09-21T17:41:43.154Z,52.98
2022-09-21T17:44:28.570Z,54.39
2022-09-21T17:46:58.613Z,55.70
2022-09-21T17:49:25.805Z,56.18
2022-09-21T17:52:10.973Z,57.32
2022-09-21T17:54:39.799Z,57.78
2022-09-21T17:57:28.420Z,58.37
2022-09-21T18:00:04.211Z,59.46
2022-09-21T18:02:30.665Z,60.08
2022-09-21T18:05:04.517Z,60.48
2022-09-21T18:07:31.218Z,60.26
2022-09-21T18:09:57.847Z,60.98
2022-09-21T18:12:50.785Z,61.45
2022-09-21T18:15:27.630Z,62.26
2022-09-21T18:18:12.693Z,62.94
2022-09-21T18:21:03.590Z,62.96
2022-09-21T18:23:48.545Z,64.30
2022-09-21T18:26:18.198Z,64.79
2022-09-21T18:28:47.629Z,65.45
2022-09-21T18:31:51.963Z,65.21
2022-09-21T18:34:54.627Z,65.88
2022-09-21T18:37:32.121Z,66.89
2022-09-21T18:40:21.800Z,67.08
2022-09-21T18:43:26.089Z,67.55
2022-09-21T18:46:01.210Z,68.83
2022-09-21T18:48:39.637Z,69.30
2022-09-21T18:51:39.402Z,69.17
2022-09-21T18:54:11.655Z,70.19
2022-09-21T18:56:39.164Z,70.72
2022-09-21T18:59:07.066Z,70.73
2022-09-21T19:01:34.200Z,71.31
2022-09-21T19:04:01.364Z,71.28
2022-09-21T19:06:47.331Z,72.48
2022-09-21T19:09:57.284Z,72.07
2022-09-21T19:12:23.826Z,72.34
2022-09-21T19:15:01.882Z,73.22
2022-09-21T19:18:05.980Z,72.92
2022-09-21T19:20:46.669Z,73.21
2022-09-21T19:23:25.081Z,73.57
2022-09-21T19:25:59.473Z,74.27
2022-09-21T19:28:36.315Z,74.52
2022-09-21T19:31:09.718Z,74.98
2022-09-21T19:33:50.089Z,75.16
2022-09-21T19:36:17.792Z,75.71
2022-09-21T19:38:44.554Z,75.77
2022-09-21T19:41:19.752Z,76.41
2022-09-21T19:43:54.539Z,76.40
2022-09-21T19:46:26.276Z,76.52
2022-09-21T19:48:59.865Z,76.89
2022-09-21T19:51:37.666Z,76.92
2022-09-21T19:54:31.152Z,77.38
2022-09-21T19:57:16.603Z,76.58
2022-09-21T19:59:43.620Z,77.30
2022-09-21T20:02:54.005Z,77.35
2022-09-21T20:05:29.444Z,74.98
2022-09-21T20:08:16.395Z,76.96
2022-09-21T20:10:54.111Z,78.09
2022-09-21T20:13:31.769Z,78.57
2022-09-21T20:16:09.066Z,78.78
2022-09-21T20:18:56.180Z,78.98
2022-09-21T20:21:26.186Z,78.71
2022-09-21T20:23:58.754Z,79.34
2022-09-21T20:26:27.350Z,79.33
2022-09-21T20:28:54.355Z,79.44
2022-09-21T20:31:23.286Z,79.75
2022-09-21T20:33:50.338Z,79.94
2022-09-21T20:36:16.799Z,80.33
2022-09-21T20:38:43.966Z,80.54
2022-09-21T20:41:16.385Z,81.15
2022-09-21T20:43:43.098Z,80.93
2022-09-21T20:46:10.795Z,80.80
2022-09-21T20:48:37.647Z,80.90
2022-09-21T20:51:06.261Z,81.40
2022-09-21T20:53:33.728Z,81.78
2022-09-21T20:56:03.668Z,81.88
2022-09-21T20:58:30.852Z,81.83
2022-09-21T21:01:04.028Z,82.36
2022-09-21T21:03:30.549Z,82.00
2022-09-21T21:06:13.945Z,82.59
2022-09-21T21:08:40.629Z,82.42
2022-09-21T21:11:07.158Z,82.67
2022-09-21T21:13:33.834Z,82.53
2022-09-21T21:16:00.271Z,82.61
2022-09-21T21:18:27.829Z,83.13
2022-09-21T21:20:54.294Z,82.90
2022-09-21T21:23:20.636Z,83.29
2022-09-21T21:25:47.939Z,83.42
2022-09-21T21:28:14.674Z,83.67
2022-09-21T21:30:41.028Z,83.30
2022-09-21T21:33:07.393Z,83.32
2022-09-21T21:35:33.842Z,83.54
2022-09-21T21:38:00.240Z,83.32
2022-09-21T21:40:26.630Z,83.68
2022-09-21T21:42:55.524Z,83.86
2022-09-21T21:45:22.055Z,84.09
2022-09-21T21:47:48.390Z,84.22
2022-09-21T21:50:14.822Z,83.87
2022-09-21T21:52:41.221Z,84.04
2022-09-21T21:55:08.123Z,84.15
2022-09-21T21:57:34.799Z,84.04
2022-09-21T22:00:01.431Z,84.21
2022-09-21T22:02:29.517Z,84.35
2022-09-21T22:04:55.976Z,84.16
2022-09-21T22:07:22.349Z,84.01
2022-09-21T22:09:48.690Z,84.14
2022-09-21T22:12:15.601Z,84.23
2022-09-21T22:14:42.014Z,84.25
2022-09-21T22:17:08.376Z,84.03
2022-09-21T22:19:35.280Z,84.49
2022-09-21T22:22:01.604Z,84.07
2022-09-21T22:24:28.050Z,84.21
2022-09-21T22:26:54.454Z,84.16
2022-09-21T22:29:20.816Z,84.30
2022-09-21T22:31:49.032Z,84.46
2022-09-21T22:34:16.201Z,84.60
2022-09-21T22:36:45.757Z,84.59
2022-09-21T22:39:12.804Z,84.58
2022-09-21T22:41:41.253Z,84.38
2022-09-21T22:44:08.056Z,84.33
2022-09-21T22:46:35.048Z,84.72
2022-09-21T22:49:01.501Z,84.66
2022-09-21T22:51:29.039Z,84.81
2022-09-21T22:53:55.725Z,85.04
2022-09-21T22:56:24.489Z,84.82
2022-09-21T22:58:53.446Z,85.05
2022-09-21T23:01:44.665Z,85.82
2022-09-21T23:04:13.171Z,85.35
2022-09-21T23:06:42.142Z,85.37
2022-09-21T23:09:13.467Z,85.47
2022-09-21T23:11:47.437Z,86.01
2022-09-21T23:14:17.036Z,86.17
2022-09-21T23:16:43.625Z,86.40
2022-09-21T23:19:15.449Z,86.08
2022-09-21T23:21:45.844Z,86.37
2022-09-21T23:24:12.920Z,85.89
2022-09-21T23:26:39.639Z,86.26
2022-09-21T23:29:12.035Z,86.78
2022-09-21T23:31:44.441Z,86.36
2022-09-21T23:34:12.658Z,86.37
2022-09-21T23:36:41.019Z,86.23
2022-09-21T23:39:11.459Z,86.43
2022-09-21T23:41:37.855Z,86.18
2022-09-21T23:44:05.900Z,86.40
2022-09-21T23:46:34.786Z,86.56
2022-09-21T23:49:01.883Z,86.37
2022-09-21T23:51:29.920Z,86.50
2022-09-21T23:53:57.323Z,86.68
2022-09-21T23:56:24.342Z,86.77
2022-09-21T23:58:51.066Z,86.87
